Alexandria, Ohio
Current Conditions -  °F | °C
As of 11:54 AM on Friday 24 Oct 2014 (Local Time) from KVTA Reporting Station
Clear Clear  
Wind Chill: 58°   Ceiling: Unl
Heat Index: 58°   Visibility: 10mi
Dew Point: 42°   Wind: 7mph
Humidity: 56%   Direction: 240°WSW
Pressure: 30.1"   Gusts: NA
Location:  40.09°N, 82.61°W
Report Text: KVTA 241554Z AUTO 24006KT 10SM CLR 14/06 A3010 RMK AO2 SLP196 T01440056
Loading
Personal Weather Stations






























Interactive Weather Map New forecast layout! Learn more

10-Day Weather Forecast

Advertisements
Track Severe Weather on mobile